Time;durP1;ratioP1;P1;durP2;ratioP2;P2;SDS_P1;SDS_P2;PMS_P1;PMS_P2;Temp;Humidity;BMP_temperature;BMP_pressure;BME280_temperature;BME280_humidity;BME280_pressure;Samples;Min_cycle;Max_cycle;Signal;HPM_P1;HPM_P2
2022/01/24 00:02:52;;;;;;;15.05;9.85;;;;;;;1.13;71.77;97437.06;10351693;28;97002;-66
2022/01/24 00:07:55;;;;;;;16.10;10.15;;;;;;;1.16;71.67;97447.25;10347345;28;97003;-67
2022/01/24 00:13:30;;;;;;;14.77;10.23;;;;;;;1.23;71.89;97445.28;10354961;28;98442;-67
2022/01/24 00:26:40;;;;;;;18.60;11.05;;;;;;;1.32;71.57;97452.63;10349976;28;97925;-66
2022/01/24 00:29:20;;;;;;;15.73;11.13;;;;;;;1.32;71.22;97434.63;10351133;28;96904;-67
2022/01/24 00:34:24;;;;;;;16.02;11.05;;;;;;;1.24;71.55;97439.22;10375133;28;96958;-67
2022/01/24 00:39:27;;;;;;;14.07;10.00;;;;;;;1.25;71.58;97440.91;10347803;28;97155;-67
2022/01/24 00:44:46;;;;;;;15.57;9.88;;;;;;;1.29;71.97;97430.41;10338777;28;96705;-67
2022/01/24 00:53:00;;;;;;;16.35;11.55;;;;;;;1.33;71.66;97428.53;10359778;28;97874;-66
2022/01/24 00:55:20;;;;;;;17.05;10.90;;;;;;;1.34;71.21;97425.09;10338541;28;96973;-67
2022/01/24 01:00:24;;;;;;;15.05;10.45;;;;;;;1.24;71.84;97418.63;10372636;28;97027;-66
2022/01/24 01:05:39;;;;;;;16.27;10.30;;;;;;;1.24;71.61;97422.03;10363275;28;97711;-67
2022/01/24 01:21:26;;;;;;;15.75;10.30;;;;;;;1.18;71.57;97422.28;10349604;28;97562;-66
2022/01/24 01:26:34;;;;;;;14.18;10.30;;;;;;;1.20;71.88;97423.06;10372035;28;97112;-67
2022/01/24 01:31:45;;;;;;;16.73;9.90;;;;;;;1.24;71.47;97428.91;10380049;28;96898;-67
2022/01/24 01:37:16;;;;;;;15.30;10.50;;;;;;;1.32;71.08;97437.19;10380808;28;98022;-67
2022/01/24 01:53:19;;;;;;;21.05;13.40;;;;;;;1.28;71.83;97443.34;10374832;28;96825;-67
2022/01/24 01:58:23;;;;;;;21.52;13.18;;;;;;;1.27;71.98;97450.22;10368645;28;97365;-66
2022/01/24 02:03:29;;;;;;;20.17;13.57;;;;;;;1.22;71.99;97448.75;10380288;28;98083;-67
2022/01/24 02:08:33;;;;;;;18.83;11.80;;;;;;;1.19;72.19;97441.97;10373318;28;97081;-66
2022/01/24 02:13:36;;;;;;;18.63;12.95;;;;;;;1.24;71.69;97441.78;10364512;28;98771;-67
2022/01/24 02:18:47;;;;;;;20.75;12.75;;;;;;;1.29;71.50;97437.31;10377964;28;98907;-67
2022/01/24 02:23:52;;;;;;;20.38;13.00;;;;;;;1.23;71.66;97443.53;10373317;28;98514;-66
2022/01/24 02:29:03;;;;;;;18.73;11.90;;;;;;;1.22;72.14;97446.16;10356164;28;97430;-67
2022/01/24 02:34:19;;;;;;;21.30;14.63;;;;;;;1.17;72.07;97442.06;10376639;28;98297;-67
2022/01/24 02:50:16;;;;;;;22.00;13.55;;;;;;;1.11;72.57;97419.13;10373273;28;99270;-66
2022/01/24 02:55:21;;;;;;;21.83;14.30;;;;;;;1.15;72.15;97415.50;10357178;28;96895;-67
2022/01/24 03:00:23;;;;;;;19.20;13.23;;;;;;;1.23;71.84;97416.97;10378382;28;96952;-67
2022/01/24 03:05:26;;;;;;;22.85;14.63;;;;;;;1.16;72.25;97406.91;10357748;28;96976;-67
2022/01/24 03:10:39;;;;;;;21.13;14.25;;;;;;;1.09;72.42;97410.63;10372749;28;97181;-66
2022/01/24 03:15:42;;;;;;;22.75;14.52;;;;;;;1.11;72.21;97408.00;10383063;28;97797;-67
2022/01/24 03:20:45;;;;;;;25.73;14.63;;;;;;;1.12;72.70;97404.50;10387854;28;97654;-67
2022/01/24 03:25:50;;;;;;;23.02;14.63;;;;;;;1.03;72.88;97399.72;10356428;28;97747;-66
2022/01/24 03:30:53;;;;;;;20.67;14.23;;;;;;;1.02;72.79;97398.03;10373343;28;98287;-66
2022/01/24 03:35:56;;;;;;;22.02;14.18;;;;;;;0.95;72.39;97400.03;10354394;28;96829;-66
2022/01/24 03:41:00;;;;;;;22.13;14.55;;;;;;;0.90;72.84;97396.81;10367748;28;98451;-67
2022/01/24 03:46:24;;;;;;;24.33;15.88;;;;;;;0.87;72.88;97397.75;10372944;28;101132;-68
2022/01/24 03:51:27;;;;;;;22.58;15.02;;;;;;;0.86;72.79;97392.66;10370612;28;97104;-66
2022/01/24 03:56:31;;;;;;;22.60;13.70;;;;;;;0.93;72.95;97396.66;10341630;28;98214;-66
2022/01/24 04:01:34;;;;;;;24.02;15.50;;;;;;;0.92;72.79;97387.28;10357403;28;96839;-67
2022/01/24 04:06:37;;;;;;;21.60;14.05;;;;;;;0.86;72.95;97387.50;10356872;28;97067;-66
2022/01/24 04:11:41;;;;;;;22.23;14.57;;;;;;;0.95;72.75;97377.72;10362935;28;98309;-67
2022/01/24 04:16:52;;;;;;;22.85;14.10;;;;;;;0.96;72.58;97384.53;10355642;28;97347;-68
2022/01/24 04:21:55;;;;;;;19.48;12.98;;;;;;;0.94;72.55;97385.50;10377784;28;97496;-66
2022/01/24 04:26:59;;;;;;;21.65;12.07;;;;;;;0.93;72.83;97384.66;10349048;28;98404;-66
2022/01/24 04:32:04;;;;;;;19.20;12.05;;;;;;;0.83;72.81;97377.34;10358815;28;97039;-66
2022/01/24 04:37:07;;;;;;;18.77;11.83;;;;;;;0.79;72.86;97381.75;10349504;28;97623;-66
2022/01/24 04:42:15;;;;;;;19.67;12.90;;;;;;;0.73;72.50;97375.13;10389386;28;97205;-66
2022/01/24 04:47:24;;;;;;;19.23;12.13;;;;;;;0.69;72.96;97381.31;10356480;28;98365;-66
2022/01/24 04:52:35;;;;;;;18.38;11.60;;;;;;;0.68;73.08;97374.47;10376637;28;98318;-67
2022/01/24 04:57:40;;;;;;;18.48;11.50;;;;;;;0.71;72.50;97374.34;10378108;28;97455;-66
2022/01/24 05:02:42;;;;;;;18.35;11.68;;;;;;;0.69;72.63;97370.16;10360906;28;97007;-66
2022/01/24 05:07:47;;;;;;;21.90;14.30;;;;;;;0.59;72.73;97367.13;10365371;27;96973;-66
2022/01/24 05:23:32;;;;;;;19.95;12.63;;;;;;;0.74;72.47;97383.69;10363787;28;98879;-67
2022/01/24 05:28:38;;;;;;;22.02;12.32;;;;;;;0.71;72.68;97363.25;10383313;28;96833;-67
2022/01/24 05:33:41;;;;;;;21.02;12.00;;;;;;;0.72;72.02;97363.19;10352690;28;96875;-66
2022/01/24 05:38:44;;;;;;;20.50;11.63;;;;;;;0.67;72.45;97356.53;10349998;28;97467;-66
2022/01/24 05:43:49;;;;;;;19.63;11.77;;;;;;;0.56;72.67;97357.78;10374292;28;97409;-66
2022/01/24 05:48:52;;;;;;;19.67;11.48;;;;;;;0.53;72.75;97354.47;10379329;27;98929;-67
2022/01/24 05:53:56;;;;;;;18.25;11.50;;;;;;;0.46;72.67;97363.31;10372987;27;98240;-66
2022/01/24 05:59:01;;;;;;;18.92;12.40;;;;;;;0.56;72.54;97368.06;10353530;28;97505;-66
2022/01/24 06:04:04;;;;;;;17.52;12.10;;;;;;;0.54;72.28;97376.75;10367646;27;97249;-67
2022/01/24 06:09:07;;;;;;;20.75;12.27;;;;;;;0.50;72.44;97370.06;10346982;28;96932;-67
2022/01/24 06:14:11;;;;;;;19.63;12.20;;;;;;;0.51;72.89;97374.28;10335633;28;96876;-70
2022/01/24 06:19:15;;;;;;;21.58;13.77;;;;;;;0.58;72.53;97373.16;10362686;28;97562;-66
2022/01/24 06:24:18;;;;;;;20.48;12.63;;;;;;;0.59;72.06;97378.22;10344826;28;97035;-66
2022/01/24 06:29:42;;;;;;;19.75;12.52;;;;;;;0.59;71.85;97380.81;10371057;28;96807;-67
2022/01/24 06:34:45;;;;;;;20.48;13.00;;;;;;;0.59;72.57;97387.69;10370979;28;98122;-66
2022/01/24 06:39:48;;;;;;;20.88;13.43;;;;;;;0.53;72.50;97386.19;10366600;28;97706;-67
2022/01/24 06:44:54;;;;;;;22.38;13.95;;;;;;;0.46;73.11;97376.19;10366195;28;98230;-66
2022/01/24 06:49:58;;;;;;;20.35;12.85;;;;;;;0.52;72.87;97378.53;10366678;28;100523;-66
2022/01/24 06:55:01;;;;;;;20.25;12.60;;;;;;;0.56;72.53;97392.94;10364024;28;96951;-66
2022/01/24 07:00:09;;;;;;;25.80;15.20;;;;;;;0.61;72.62;97384.16;10359364;28;96997;-69
2022/01/24 07:05:12;;;;;;;20.88;13.93;;;;;;;0.58;72.88;97386.00;10364919;28;96797;-67
2022/01/24 07:10:15;;;;;;;21.17;14.13;;;;;;;0.42;73.19;97385.75;10348281;28;96786;-66
2022/01/24 07:15:40;;;;;;;20.60;13.55;;;;;;;0.58;72.84;97389.44;10379241;27;97589;-68
2022/01/24 07:20:43;;;;;;;20.52;13.30;;;;;;;0.66;72.66;97398.59;10354091;28;97214;-67
2022/01/24 07:25:46;;;;;;;24.15;13.20;;;;;;;0.63;72.61;97406.41;10346333;28;96889;-67
2022/01/24 07:30:50;;;;;;;23.88;14.07;;;;;;;0.68;72.88;97410.47;10350818;28;99200;-66
2022/01/24 07:35:53;;;;;;;22.83;13.23;;;;;;;0.59;72.65;97405.69;10356821;28;96760;-66
2022/01/24 07:40:56;;;;;;;20.73;13.02;;;;;;;0.57;72.74;97412.63;10364513;28;98549;-67
2022/01/24 07:46:01;;;;;;;23.15;13.40;;;;;;;0.65;72.99;97420.88;10370210;28;96825;-68
2022/01/24 07:51:04;;;;;;;22.23;14.45;;;;;;;0.72;72.10;97406.06;10357768;28;98716;-66
2022/01/24 07:56:07;;;;;;;20.23;12.75;;;;;;;0.76;71.96;97426.47;10355771;27;97119;-67
2022/01/24 08:01:12;;;;;;;20.42;13.68;;;;;;;0.77;72.01;97435.84;10363068;28;98502;-66
2022/01/24 08:06:15;;;;;;;20.80;13.83;;;;;;;0.72;72.44;97427.50;10370903;28;98855;-66
2022/01/24 08:11:18;;;;;;;21.73;13.80;;;;;;;0.55;72.95;97432.41;10344690;28;96791;-66
2022/01/24 08:16:23;;;;;;;20.23;13.20;;;;;;;0.59;72.88;97436.53;10355673;28;96913;-66
2022/01/24 08:21:26;;;;;;;20.27;13.43;;;;;;;0.76;72.42;97434.19;10358214;28;96998;-67
2022/01/24 08:26:29;;;;;;;21.42;13.13;;;;;;;0.83;71.94;97445.09;10344218;28;96938;-67
2022/01/24 08:31:36;;;;;;;23.33;14.52;;;;;;;0.94;71.71;97447.25;10360119;28;97105;-68
2022/01/24 08:36:39;;;;;;;21.40;13.60;;;;;;;0.82;72.74;97447.72;10365774;28;96862;-66
2022/01/24 08:41:56;;;;;;;20.98;13.43;;;;;;;0.81;72.68;97441.72;10359344;28;96884;-66
2022/01/24 08:47:01;;;;;;;24.13;14.68;;;;;;;0.86;72.06;97446.69;10353652;28;97052;-67
2022/01/24 08:52:04;;;;;;;23.20;14.20;;;;;;;0.93;71.86;97445.56;10357507;28;96912;-66
2022/01/24 08:57:27;;;;;;;20.90;12.80;;;;;;;0.89;72.19;97459.44;10359766;28;96877;-66
2022/01/24 09:02:32;;;;;;;20.75;13.77;;;;;;;0.83;72.56;97454.50;10363482;28;98417;-67
2022/01/24 09:07:36;;;;;;;22.25;13.95;;;;;;;0.93;72.06;97455.84;10360182;28;96753;-66
2022/01/24 09:12:41;;;;;;;23.38;14.10;;;;;;;1.05;71.68;97449.41;10343184;28;97161;-66
2022/01/24 09:17:45;;;;;;;21.00;13.87;;;;;;;1.10;71.97;97453.47;10363396;28;96899;-67
2022/01/24 09:22:49;;;;;;;23.20;14.25;;;;;;;1.31;71.19;97451.81;10357571;28;96863;-67
2022/01/24 09:27:52;;;;;;;21.27;14.32;;;;;;;1.40;71.78;97455.75;10347427;28;97074;-66
2022/01/24 09:32:57;;;;;;;20.65;14.10;;;;;;;1.20;71.49;97453.13;10372490;28;97051;-66
2022/01/24 09:37:59;;;;;;;21.77;14.67;;;;;;;1.16;71.55;97455.81;10363439;28;96921;-67
2022/01/24 09:43:03;;;;;;;24.40;15.50;;;;;;;1.63;71.10;97457.38;10355958;28;96890;-66
2022/01/24 09:48:08;;;;;;;21.00;14.20;;;;;;;1.89;70.86;97466.63;10376327;28;97843;-66
2022/01/24 09:53:11;;;;;;;21.02;13.80;;;;;;;1.92;70.19;97463.91;10378332;28;98068;-67
2022/01/24 09:58:15;;;;;;;22.80;14.40;;;;;;;1.94;69.97;97472.41;10374100;27;99173;-66
2022/01/24 10:03:19;;;;;;;23.30;14.90;;;;;;;1.78;70.74;97475.69;10368078;28;97181;-66
2022/01/24 10:08:42;;;;;;;23.70;15.35;;;;;;;1.75;70.61;97476.66;10371233;28;97461;-68
2022/01/24 10:19:13;;;;;;;22.92;14.50;;;;;;;1.84;70.25;97480.59;10370229;27;96895;-67
2022/01/24 10:24:37;;;;;;;23.17;14.80;;;;;;;2.09;70.18;97486.41;10348061;28;96851;-67
2022/01/24 10:29:46;;;;;;;22.67;14.70;;;;;;;2.26;69.79;97488.25;10358482;28;97019;-66
2022/01/24 10:34:50;;;;;;;22.50;15.02;;;;;;;2.11;69.91;97488.91;10374923;28;98185;-66
2022/01/24 10:39:58;;;;;;;25.15;15.25;;;;;;;1.83;69.88;97492.63;10348231;28;96935;-66
2022/01/24 10:45:10;;;;;;;21.77;14.82;;;;;;;1.81;70.44;97491.03;10355930;28;96912;-67
2022/01/24 10:50:22;;;;;;;23.60;15.10;;;;;;;1.98;69.54;97488.59;10377517;27;97060;-66
2022/01/24 10:55:28;;;;;;;24.48;15.70;;;;;;;2.04;69.95;97490.06;10353063;28;96914;-66
2022/01/24 11:00:32;;;;;;;25.83;16.10;;;;;;;2.02;70.04;97491.88;10347778;28;98021;-66
2022/01/24 11:05:39;;;;;;;22.65;15.27;;;;;;;2.01;69.70;97488.47;10372070;28;98100;-66
2022/01/24 11:10:45;;;;;;;22.98;14.98;;;;;;;2.38;69.21;97486.06;10355837;28;96886;-66
2022/01/24 11:15:56;;;;;;;22.95;16.00;;;;;;;2.30;69.29;97478.63;10348328;28;96861;-67
2022/01/24 11:21:13;;;;;;;24.15;15.43;;;;;;;2.65;68.14;97471.94;10365740;28;96925;-67
2022/01/24 11:26:16;;;;;;;26.63;16.50;;;;;;;2.83;68.64;97466.88;10355603;28;96717;-67
2022/01/24 11:31:24;;;;;;;25.95;16.55;;;;;;;2.94;68.03;97469.78;10345662;28;97527;-66
2022/01/24 11:36:38;;;;;;;22.98;15.40;;;;;;;2.83;68.10;97456.53;10369317;27;97015;-66
2022/01/24 11:41:43;;;;;;;25.30;15.15;;;;;;;2.66;68.65;97449.56;10364472;28;96963;-66
2022/01/24 11:46:48;;;;;;;23.87;16.37;;;;;;;2.49;68.24;97437.41;10351311;28;101005;-67
2022/01/24 11:52:04;;;;;;;24.25;16.60;;;;;;;2.91;67.16;97438.97;10341973;28;96772;-66
2022/01/24 11:57:19;;;;;;;26.40;16.30;;;;;;;3.31;66.44;97431.06;10391645;27;101226;-67
2022/01/24 12:02:25;;;;;;;23.20;15.35;;;;;;;3.50;66.32;97431.00;10360929;28;97112;-67
2022/01/24 12:07:31;;;;;;;22.27;15.18;;;;;;;3.94;65.60;97433.16;10357159;28;96922;-67
2022/01/24 12:12:45;;;;;;;21.88;15.55;;;;;;;4.22;64.86;97426.59;10362941;28;98466;-67
2022/01/24 12:17:49;;;;;;;22.77;15.07;;;;;;;4.55;64.76;97421.38;10367275;28;97972;-67
2022/01/24 12:22:54;;;;;;;24.58;15.65;;;;;;;4.82;63.89;97413.91;10372118;28;97095;-66
2022/01/24 12:28:23;;;;;;;24.53;15.67;;;;;;;4.51;64.40;97400.03;10379716;28;98974;-67
2022/01/24 12:33:31;;;;;;;24.05;15.57;;;;;;;4.66;64.32;97402.69;10351155;28;96999;-66
2022/01/24 12:38:43;;;;;;;24.38;16.00;;;;;;;4.78;63.69;97399.44;10362591;28;97280;-68
2022/01/24 12:43:58;;;;;;;21.27;14.88;;;;;;;4.98;62.91;97390.59;10375927;28;96911;-66
2022/01/24 12:49:04;;;;;;;21.47;14.83;;;;;;;4.85;63.01;97392.19;10358581;27;99297;-68
2022/01/24 12:54:08;;;;;;;;;;;;;;;4.66;64.50;97387.16;10366351;28;96936;-67
2022/01/24 12:59:12;;;;;;;21.65;14.52;;;;;;;4.69;63.75;97372.31;10355014;28;98569;-67
2022/01/24 13:04:15;;;;;;;25.33;16.43;;;;;;;4.86;63.70;97373.97;10362354;28;98430;-67
2022/01/24 13:09:25;;;;;;;23.60;16.27;;;;;;;4.98;63.37;97366.47;10377281;28;97074;-67
2022/01/24 13:14:36;;;;;;;22.92;16.23;;;;;;;5.18;62.95;97373.94;10367343;27;97027;-67
2022/01/24 13:25:12;;;;;;;22.65;15.43;;;;;;;5.25;62.02;97364.91;10361047;28;97965;-66
2022/01/24 13:30:16;;;;;;;23.45;16.67;;;;;;;5.13;61.74;97363.84;10370729;28;97881;-66
2022/01/24 13:35:25;;;;;;;24.05;16.13;;;;;;;4.89;62.09;97368.63;10356587;28;96924;-66
2022/01/24 13:40:38;;;;;;;22.55;16.15;;;;;;;4.79;62.08;97354.53;10377589;27;96920;-67
2022/01/24 13:45:45;;;;;;;26.70;16.98;;;;;;;4.62;62.48;97350.25;10379006;28;96908;-67
2022/01/24 13:50:51;;;;;;;23.70;16.15;;;;;;;4.40;63.43;97348.00;10358691;28;97276;-67
2022/01/24 13:55:55;;;;;;;25.55;16.98;;;;;;;4.39;63.03;97343.75;10363777;28;97140;-66
2022/01/24 14:00:59;;;;;;;22.85;16.10;;;;;;;4.25;63.51;97343.66;10355516;28;97564;-66
2022/01/24 14:06:16;;;;;;;27.07;17.60;;;;;;;4.25;63.59;97339.31;10369797;28;97005;-66
2022/01/24 14:11:20;;;;;;;28.08;18.50;;;;;;;4.28;63.63;97338.31;10357951;28;96804;-66
2022/01/24 14:16:35;;;;;;;25.15;17.17;;;;;;;4.45;63.21;97337.41;10363996;28;96853;-68
2022/01/24 14:21:38;;;;;;;25.30;16.85;;;;;;;4.76;62.57;97344.34;10355119;28;98610;-66
2022/01/24 14:26:48;;;;;;;23.83;16.83;;;;;;;5.06;61.56;97343.53;10335877;28;96937;-67
2022/01/24 14:32:09;;;;;;;26.17;17.20;;;;;;;5.40;61.01;97342.47;10348831;28;98248;-66
2022/01/24 14:37:12;;;;;;;23.23;15.27;;;;;;;5.47;60.76;97340.34;10354421;28;96881;-66
2022/01/24 14:42:31;;;;;;;27.90;17.27;;;;;;;5.65;60.84;97349.66;10343007;28;97237;-67
2022/01/24 14:47:35;;;;;;;23.50;15.85;;;;;;;5.96;60.13;97349.59;10352976;28;98447;-66
2022/01/24 14:52:38;;;;;;;24.63;16.88;;;;;;;6.12;59.73;97346.91;10347644;28;96999;-66
2022/01/24 14:57:42;;;;;;;26.48;17.95;;;;;;;6.25;59.91;97347.84;10353662;28;97003;-66
2022/01/24 15:02:45;;;;;;;23.95;16.55;;;;;;;6.44;59.16;97350.97;10336173;28;98226;-66
2022/01/24 15:07:49;;;;;;;22.35;16.27;;;;;;;6.42;59.26;97355.41;10357628;28;97238;-67
2022/01/24 15:12:55;;;;;;;23.50;16.77;;;;;;;6.35;59.21;97355.91;10367044;28;97733;-66
2022/01/24 15:28:41;;;;;;;24.40;16.92;;;;;;;6.40;58.50;97357.28;10359216;28;97478;-66
2022/01/24 15:33:44;;;;;;;25.23;17.25;;;;;;;6.27;58.48;97364.13;10364463;28;96909;-67
2022/01/24 15:38:47;;;;;;;24.83;16.80;;;;;;;5.77;59.23;97370.59;10355009;28;96902;-69
2022/01/24 15:44:01;;;;;;;22.63;16.20;;;;;;;5.57;59.44;97359.63;10355753;28;96807;-66
2022/01/24 15:49:04;;;;;;;25.50;17.83;;;;;;;5.66;59.16;97364.28;10343538;28;97989;-68
2022/01/24 15:54:07;;;;;;;24.40;16.55;;;;;;;5.57;59.06;97370.00;10353048;28;98910;-67
2022/01/24 15:59:12;;;;;;;25.55;16.58;;;;;;;4.93;60.10;97375.31;10355350;28;97304;-67
2022/01/24 16:04:15;;;;;;;26.73;17.25;;;;;;;4.11;61.07;97378.84;10370896;27;97970;-66
2022/01/24 16:09:23;;;;;;;25.98;16.98;;;;;;;3.49;62.90;97377.69;10369389;27;98279;-66
2022/01/24 16:14:27;;;;;;;31.95;19.80;;;;;;;2.87;63.28;97376.34;10364961;28;98639;-67
2022/01/24 16:19:33;;;;;;;30.23;17.80;;;;;;;2.35;64.55;97383.03;10366330;28;96805;-66
2022/01/24 16:29:57;;;;;;;26.70;16.42;;;;;;;1.69;65.77;97399.63;10343036;28;96780;-65
2022/01/24 16:35:03;;;;;;;29.97;18.07;;;;;;;1.35;66.29;97401.03;10361281;28;97014;-66
2022/01/24 16:40:12;;;;;;;27.58;17.48;;;;;;;0.98;67.25;97411.06;10362660;28;97986;-67
2022/01/24 16:47:02;;;;;;;27.55;16.63;;;;;;;0.65;67.76;97415.72;10362206;28;96724;-66
2022/01/24 16:50:41;;;;;;;29.67;17.55;;;;;;;0.30;68.45;97417.88;10374396;28;96967;-67
2022/01/24 16:55:44;;;;;;;30.23;17.27;;;;;;;0.15;68.39;97421.00;10369447;28;97239;-65
2022/01/24 17:00:49;;;;;;;29.23;17.08;;;;;;;-0.05;68.68;97419.97;10365480;28;96953;-66
2022/01/24 17:05:53;;;;;;;26.97;16.30;;;;;;;-0.33;69.22;97420.91;10387539;28;98022;-66
2022/01/24 17:10:57;;;;;;;27.85;16.20;;;;;;;-0.49;69.94;97430.03;10371372;28;96816;-66
2022/01/24 17:16:03;;;;;;;29.10;16.30;;;;;;;-0.66;70.24;97432.31;10376743;28;97877;-67
2022/01/24 17:21:07;;;;;;;27.30;16.52;;;;;;;-0.88;70.31;97430.41;10368531;28;97615;-67
2022/01/24 17:26:10;;;;;;;30.83;16.80;;;;;;;-1.03;70.13;97433.44;10365242;28;98649;-66
2022/01/24 17:31:14;;;;;;;28.75;17.10;;;;;;;-1.18;71.47;97445.03;10375058;28;97489;-66
2022/01/24 17:36:17;;;;;;;26.48;15.13;;;;;;;-1.25;71.16;97444.34;10355736;28;97058;-66
2022/01/24 17:41:20;;;;;;;29.52;15.63;;;;;;;-1.32;71.74;97437.75;10354455;28;98078;-65
2022/01/24 17:46:24;;;;;;;26.00;14.85;;;;;;;-1.41;71.78;97443.97;10356173;28;101940;-66
2022/01/24 17:51:27;;;;;;;27.60;14.73;;;;;;;-1.54;72.21;97443.47;10348681;28;97295;-67
2022/01/24 17:56:31;;;;;;;23.17;13.25;;;;;;;-1.58;72.65;97439.31;10368512;28;96843;-66
2022/01/24 18:01:35;;;;;;;24.00;12.52;;;;;;;-1.62;72.73;97436.88;10362301;28;97009;-66
2022/01/24 18:06:38;;;;;;;24.83;14.20;;;;;;;-1.68;71.89;97450.72;10351008;28;96932;-67
2022/01/24 18:11:46;;;;;;;29.75;14.00;;;;;;;-1.72;72.46;97444.84;10361179;28;97498;-65
2022/01/24 18:16:52;;;;;;;26.88;15.05;;;;;;;-1.80;73.10;97456.19;10366427;28;97006;-66
2022/01/24 18:21:55;;;;;;;25.80;15.10;;;;;;;-1.84;72.84;97465.69;10353492;28;96956;-66
2022/01/24 18:26:58;;;;;;;34.75;15.98;;;;;;;-1.98;73.02;97468.59;10366809;28;97250;-67
2022/01/24 18:32:03;;;;;;;31.63;18.70;;;;;;;-2.08;73.81;97472.28;10354278;27;96915;-67
2022/01/24 18:37:06;;;;;;;36.13;20.10;;;;;;;-2.16;73.30;97474.19;10358123;28;96990;-66
2022/01/24 18:42:12;;;;;;;34.63;19.00;;;;;;;-2.24;74.37;97477.78;10359381;28;98497;-66
2022/01/24 18:47:17;;;;;;;37.35;19.95;;;;;;;-2.28;74.64;97486.44;10359794;28;98865;-66
2022/01/24 18:52:20;;;;;;;42.90;22.43;;;;;;;-2.32;74.51;97484.81;10375265;28;98165;-66
2022/01/24 18:57:24;;;;;;;43.73;23.37;;;;;;;-2.36;74.48;97490.91;10359737;28;97121;-67
2022/01/24 19:02:28;;;;;;;49.60;26.33;;;;;;;-2.40;73.78;97489.31;10365868;28;96996;-66
2022/01/24 19:07:32;;;;;;;40.92;23.70;;;;;;;-2.43;74.42;97481.69;10365988;28;97449;-66
2022/01/24 19:12:39;;;;;;;50.38;26.17;;;;;;;-2.42;73.69;97473.13;10364036;28;97005;-66
2022/01/24 19:17:51;;;;;;;42.08;22.38;;;;;;;-2.42;73.76;97470.56;10365788;28;97027;-66
2022/01/24 19:23:18;;;;;;;38.25;21.45;;;;;;;-2.45;73.50;97470.66;10371002;28;97011;-66
2022/01/24 19:28:23;;;;;;;42.25;20.85;;;;;;;-2.57;73.55;97463.28;10374999;28;98639;-66
2022/01/24 19:33:27;;;;;;;;;;;;;;;-2.67;75.14;97483.13;10355287;28;98581;-67
2022/01/24 19:38:31;;;;;;;55.40;27.40;;;;;;;-2.76;74.82;97483.34;10364411;28;96990;-67
2022/01/24 19:43:34;;;;;;;100.07;45.35;;;;;;;-2.77;74.09;97487.59;10349707;28;97785;-67
2022/01/24 19:48:39;;;;;;;92.65;42.45;;;;;;;-2.82;74.20;97494.53;10345401;27;96813;-67
2022/01/24 19:53:44;;;;;;;63.47;33.45;;;;;;;-2.82;74.31;97505.63;10354277;28;98938;-65
2022/01/24 19:58:51;;;;;;;;;;;;;;;-2.85;74.25;97502.28;10360415;28;97710;-66
2022/01/24 20:03:57;;;;;;;53.58;26.83;;;;;;;-2.87;74.69;97498.91;10366350;28;97931;-66
2022/01/24 20:09:00;;;;;;;45.38;24.02;;;;;;;-2.87;74.65;97502.34;10367050;28;97110;-66
2022/01/24 20:14:03;;;;;;;40.40;22.23;;;;;;;-2.93;75.06;97493.94;10364308;28;101423;-66
2022/01/24 20:19:08;;;;;;;42.10;22.25;;;;;;;-2.99;75.19;97502.59;10370215;28;96960;-66
2022/01/24 20:24:12;;;;;;;39.80;22.58;;;;;;;-3.04;75.84;97495.03;10350782;28;97074;-66
2022/01/24 20:29:22;;;;;;;39.72;23.77;;;;;;;-3.11;76.12;97497.72;10347434;28;101375;-67
2022/01/24 20:34:26;;;;;;;54.17;28.33;;;;;;;-3.11;76.48;97497.72;10367252;28;96889;-66
2022/01/24 20:39:29;;;;;;;40.88;23.05;;;;;;;-3.08;75.63;97498.53;10361646;28;98097;-66
2022/01/24 20:44:32;;;;;;;37.42;20.20;;;;;;;-3.08;76.71;97515.56;10356574;28;98116;-66
2022/01/24 20:49:36;;;;;;;32.53;19.50;;;;;;;-3.13;76.51;97510.56;10369755;27;99074;-65
2022/01/24 20:54:41;;;;;;;32.47;18.35;;;;;;;-3.14;76.56;97519.09;10353173;28;97177;-66
2022/01/24 20:59:46;;;;;;;28.65;17.38;;;;;;;-3.16;76.66;97516.56;10350374;28;97999;-66
2022/01/24 21:04:51;;;;;;;38.03;21.27;;;;;;;-3.23;76.95;97517.56;10363132;28;98878;-66
2022/01/24 21:10:02;;;;;;;39.03;21.13;;;;;;;-3.24;76.77;97532.94;10353745;28;96974;-66
2022/01/24 21:15:06;;;;;;;36.88;20.58;;;;;;;-3.26;76.16;97527.03;10369301;28;98263;-68
2022/01/24 21:20:11;;;;;;;44.20;22.92;;;;;;;-3.28;76.22;97532.16;10365821;28;101302;-65
2022/01/24 21:25:14;;;;;;;46.55;24.65;;;;;;;-3.31;77.00;97531.38;10358776;28;97196;-65
2022/01/24 21:30:16;;;;;;;43.97;22.10;;;;;;;-3.35;76.72;97536.56;10357476;28;99193;-66
2022/01/24 21:35:21;;;;;;;41.55;23.55;;;;;;;-3.31;77.12;97541.59;10364546;28;97004;-67
2022/01/24 21:40:24;;;;;;;38.80;21.33;;;;;;;-3.19;77.81;97536.25;10354057;28;98002;-66
2022/01/24 21:45:29;;;;;;;37.92;20.58;;;;;;;-3.05;77.82;97548.75;10353837;28;101485;-64
2022/01/24 21:50:34;;;;;;;41.25;21.90;;;;;;;-2.97;77.34;97537.47;10365586;28;97338;-67
2022/01/24 21:55:37;;;;;;;37.25;20.25;;;;;;;-2.92;77.94;97524.59;10348408;28;97061;-67
2022/01/24 22:00:40;;;;;;;37.95;20.00;;;;;;;-2.90;77.89;97532.25;10370740;27;96911;-66
2022/01/24 22:05:45;;;;;;;36.38;20.98;;;;;;;-2.81;77.07;97527.75;10354368;28;97168;-66
2022/01/24 22:10:48;;;;;;;40.83;21.43;;;;;;;-2.68;77.66;97532.59;10354197;28;101169;-65
2022/01/24 22:15:51;;;;;;;37.08;21.02;;;;;;;-2.61;76.75;97529.00;10359710;28;97942;-66
2022/01/24 22:20:56;;;;;;;36.33;20.73;;;;;;;-2.55;76.65;97533.16;10362192;28;97960;-67
2022/01/24 22:26:07;;;;;;;40.55;21.27;;;;;;;-2.47;76.60;97531.25;10364551;28;100110;-65
2022/01/24 22:31:11;;;;;;;40.30;22.55;;;;;;;-2.38;76.75;97543.84;10369486;28;97507;-66
2022/01/24 22:36:16;;;;;;;47.20;28.50;;;;;;;-2.43;77.13;97538.81;10384037;28;97521;-66
2022/01/24 22:41:31;;;;;;;44.00;24.03;;;;;;;-2.33;76.90;97544.56;10366317;28;96784;-65
2022/01/24 22:46:34;;;;;;;37.90;22.35;;;;;;;-2.20;76.21;97549.41;10368863;28;98513;-66
2022/01/24 22:51:40;;;;;;;35.53;21.58;;;;;;;-2.11;76.22;97551.72;10370947;27;97863;-67
2022/01/24 22:56:42;;;;;;;;;;;;;;;-2.00;76.70;97552.31;10380640;28;97486;-65
2022/01/24 23:01:47;;;;;;;45.25;23.17;;;;;;;-1.87;76.35;97557.97;10375633;28;97409;-65
2022/01/24 23:06:51;;;;;;;48.10;24.48;;;;;;;-1.77;75.66;97558.56;10361807;28;98786;-66
2022/01/24 23:11:54;;;;;;;58.65;30.95;;;;;;;-1.87;76.24;97561.34;10365347;28;96862;-65
2022/01/24 23:22:20;;;;;;;52.28;29.35;;;;;;;-1.70;77.07;97570.34;10378036;27;97455;-66
2022/01/24 23:27:25;;;;;;;46.17;26.23;;;;;;;-1.57;76.08;97571.72;10389612;28;97168;-66
2022/01/24 23:32:33;;;;;;;57.33;29.60;;;;;;;-1.46;77.08;97567.13;10371079;28;97309;-65
2022/01/24 23:42:57;;;;;;;53.50;29.92;;;;;;;-1.27;76.53;97570.03;10360624;28;96809;-66
2022/01/24 23:48:00;;;;;;;56.53;30.10;;;;;;;-1.20;76.90;97569.88;10366148;28;98544;-66
2022/01/24 23:53:05;;;;;;;52.50;29.25;;;;;;;-1.16;76.87;97577.41;10356378;28;96929;-66
2022/01/24 23:58:25;;;;;;;50.80;28.25;;;;;;;-1.03;76.13;97572.81;10361136;28;97105;-66
